Time;durP1;ratioP1;P1;durP2;ratioP2;P2;SDS_P1;SDS_P2;PMS_P1;PMS_P2;Temp;Humidity;BMP_temperature;BMP_pressure;BME280_temperature;BME280_humidity;BME280_pressure;Samples;Min_cycle;Max_cycle;Signal;HPM_P1;HPM_P2
2023/08/02 00:02:21;;;;;;;8.57;5.93;;;;;;;;;;5074579;28;20048;-70
2023/08/02 00:04:51;;;;;;;7.95;6.43;;;;;;;;;;5074483;28;20045;-69
2023/08/02 00:07:19;;;;;;;8.10;6.55;;;;;;;;;;5075343;28;20044;-71
2023/08/02 00:09:47;;;;;;;8.00;6.20;;;;;;;;;;5094668;28;20048;-70
2023/08/02 00:12:14;;;;;;;7.80;6.22;;;;;;;;;;5079364;28;20109;-71
2023/08/02 00:14:42;;;;;;;7.88;6.80;;;;;;;;;;5088685;28;20036;-71
2023/08/02 00:17:09;;;;;;;9.57;6.65;;;;;;;;;;5094314;28;20040;-72
2023/08/02 00:19:37;;;;;;;10.77;7.38;;;;;;;;;;5094106;28;20040;-71
2023/08/02 00:22:04;;;;;;;10.55;7.38;;;;;;;;;;5094595;28;20043;-69
2023/08/02 00:24:32;;;;;;;9.20;6.97;;;;;;;;;;5076842;28;20109;-70
2023/08/02 00:26:59;;;;;;;8.98;7.60;;;;;;;;;;5073652;28;20037;-71
2023/08/02 00:29:27;;;;;;;8.73;7.40;;;;;;;;;;5074113;28;20067;-70
2023/08/02 00:31:54;;;;;;;9.57;7.20;;;;;;;;;;5077889;28;20101;-69
2023/08/02 00:34:22;;;;;;;8.43;6.70;;;;;;;;;;5091122;28;20044;-70
2023/08/02 00:36:49;;;;;;;8.20;6.80;;;;;;;;;;5073057;28;20048;-70
2023/08/02 00:39:18;;;;;;;9.75;6.65;;;;;;;;;;5073634;28;20036;-71
2023/08/02 00:41:46;;;;;;;10.77;6.63;;;;;;;;;;5077706;28;20048;-70
2023/08/02 00:44:13;;;;;;;6.68;5.93;;;;;;;;;;5091336;28;20508;-70
2023/08/02 00:46:41;;;;;;;6.45;5.75;;;;;;;;;;5091188;28;20040;-70
2023/08/02 00:49:12;;;;;;;9.45;6.10;;;;;;;;;;5072241;28;20040;-70
2023/08/02 00:51:39;;;;;;;7.38;6.03;;;;;;;;;;5071938;28;20106;-71
2023/08/02 00:54:07;;;;;;;7.38;5.82;;;;;;;;;;5076225;28;20434;-70
2023/08/02 00:56:35;;;;;;;6.63;6.03;;;;;;;;;;5081925;28;20141;-70
2023/08/02 00:59:02;;;;;;;7.18;5.60;;;;;;;;;;5088585;28;20055;-71
2023/08/02 01:01:30;;;;;;;7.15;5.80;;;;;;;;;;5082303;28;20037;-70
2023/08/02 01:03:58;;;;;;;9.07;5.55;;;;;;;;;;5088893;28;20041;-70
2023/08/02 01:06:25;;;;;;;7.10;5.72;;;;;;;;;;5080888;28;20076;-70
2023/08/02 01:08:58;;;;;;;6.88;5.70;;;;;;;;;;5087612;28;20529;-71
2023/08/02 01:11:44;;;;;;;7.28;5.28;;;;;;;;;;5092122;28;20067;-71
2023/08/02 01:14:16;;;;;;;5.90;5.30;;;;;;;;;;5092030;28;20044;-70
2023/08/02 01:16:45;;;;;;;6.75;5.60;;;;;;;;;;5073106;28;20154;-70
2023/08/02 01:19:12;;;;;;;8.60;5.72;;;;;;;;;;5071778;28;20545;-70
2023/08/02 01:21:40;;;;;;;6.65;5.63;;;;;;;;;;5071654;28;20459;-70
2023/08/02 01:24:08;;;;;;;8.18;5.50;;;;;;;;;;5071601;28;20394;-70
2023/08/02 01:26:37;;;;;;;6.57;5.65;;;;;;;;;;5072706;28;20059;-70
2023/08/02 01:29:07;;;;;;;7.18;5.63;;;;;;;;;;5072670;28;20041;-70
2023/08/02 01:31:35;;;;;;;7.18;6.00;;;;;;;;;;5076381;28;20462;-70
2023/08/02 01:34:03;;;;;;;6.40;5.70;;;;;;;;;;5091709;28;20051;-70
2023/08/02 01:36:31;;;;;;;6.68;5.60;;;;;;;;;;5091628;28;20048;-70
2023/08/02 01:38:59;;;;;;;6.55;5.40;;;;;;;;;;5091674;28;20067;-70
2023/08/02 01:41:26;;;;;;;8.85;5.82;;;;;;;;;;5091388;28;20072;-70
2023/08/02 01:43:54;;;;;;;7.10;5.97;;;;;;;;;;5092891;28;20044;-70
2023/08/02 01:46:21;;;;;;;6.97;5.78;;;;;;;;;;5092559;28;20570;-70
2023/08/02 01:48:49;;;;;;;6.80;6.10;;;;;;;;;;5071261;28;20094;-70
2023/08/02 01:51:17;;;;;;;7.32;6.28;;;;;;;;;;5072633;28;20037;-70
2023/08/02 01:53:44;;;;;;;6.78;5.97;;;;;;;;;;5075079;28;20063;-70
2023/08/02 01:56:12;;;;;;;6.60;6.00;;;;;;;;;;5082649;28;20044;-70
2023/08/02 01:58:39;;;;;;;8.40;7.15;;;;;;;;;;5086127;28;20116;-70
2023/08/02 02:01:07;;;;;;;8.45;6.80;;;;;;;;;;5084942;28;20049;-70
2023/08/02 02:03:35;;;;;;;7.82;6.78;;;;;;;;;;5089603;28;20562;-70
2023/08/02 02:06:03;;;;;;;10.57;6.50;;;;;;;;;;5091334;28;20040;-70
2023/08/02 02:08:30;;;;;;;7.30;6.45;;;;;;;;;;5090715;28;20040;-70
2023/08/02 02:10:58;;;;;;;6.93;6.15;;;;;;;;;;5091216;28;20048;-70
2023/08/02 02:13:26;;;;;;;7.50;6.70;;;;;;;;;;5091242;28;20032;-70
2023/08/02 02:15:53;;;;;;;8.63;7.40;;;;;;;;;;5090085;28;20036;-70
2023/08/02 02:18:21;;;;;;;8.32;6.30;;;;;;;;;;5091379;28;20405;-70
2023/08/02 02:20:48;;;;;;;7.07;6.38;;;;;;;;;;5092456;28;20081;-70
2023/08/02 02:23:16;;;;;;;7.70;6.93;;;;;;;;;;5092458;28;20486;-70
2023/08/02 02:25:44;;;;;;;7.18;6.47;;;;;;;;;;5092293;28;20063;-71
2023/08/02 02:28:12;;;;;;;6.45;5.80;;;;;;;;;;5091095;28;20048;-70
2023/08/02 02:30:42;;;;;;;7.22;6.53;;;;;;;;;;5090939;28;20040;-70
2023/08/02 02:33:10;;;;;;;8.90;6.30;;;;;;;;;;5075789;28;20072;-70
2023/08/02 02:35:39;;;;;;;7.72;6.55;;;;;;;;;;5070644;28;20254;-70
2023/08/02 02:38:06;;;;;;;7.43;6.15;;;;;;;;;;5072173;28;20045;-70
2023/08/02 02:40:34;;;;;;;8.07;6.60;;;;;;;;;;5071986;28;20390;-71
2023/08/02 02:43:01;;;;;;;9.68;6.60;;;;;;;;;;5070841;28;20083;-70
2023/08/02 02:45:30;;;;;;;8.70;6.57;;;;;;;;;;5071798;28;20037;-70
2023/08/02 02:47:57;;;;;;;7.80;6.85;;;;;;;;;;5071936;28;20036;-70
2023/08/02 02:50:26;;;;;;;7.55;6.47;;;;;;;;;;5072031;28;20394;-70
2023/08/02 02:52:53;;;;;;;6.93;6.15;;;;;;;;;;5085606;28;20036;-70
2023/08/02 02:55:21;;;;;;;8.00;6.50;;;;;;;;;;5090808;28;20418;-70
2023/08/02 02:57:50;;;;;;;7.75;6.72;;;;;;;;;;5081646;28;20044;-70
2023/08/02 03:00:18;;;;;;;10.13;6.57;;;;;;;;;;5070852;28;20044;-70
2023/08/02 03:02:46;;;;;;;7.80;6.43;;;;;;;;;;5081036;28;20042;-70
2023/08/02 03:05:13;;;;;;;9.07;5.95;;;;;;;;;;5092415;28;20040;-69
2023/08/02 03:07:41;;;;;;;7.25;6.47;;;;;;;;;;5091988;28;20111;-69
2023/08/02 03:10:08;;;;;;;7.93;6.65;;;;;;;;;;5078677;28;20086;-69
2023/08/02 03:12:36;;;;;;;7.28;6.25;;;;;;;;;;5072883;28;20040;-71
2023/08/02 03:15:03;;;;;;;7.53;6.45;;;;;;;;;;5083880;28;20105;-70
2023/08/02 03:17:31;;;;;;;7.78;6.68;;;;;;;;;;5082636;28;20526;-69
2023/08/02 03:19:59;;;;;;;8.02;7.05;;;;;;;;;;5072447;28;20552;-70
2023/08/02 03:22:26;;;;;;;7.75;6.65;;;;;;;;;;5075270;28;20498;-70
2023/08/02 03:24:54;;;;;;;10.60;6.70;;;;;;;;;;5075116;28;20040;-70
2023/08/02 03:27:21;;;;;;;7.68;6.45;;;;;;;;;;5075390;28;20040;-70
2023/08/02 03:29:49;;;;;;;9.15;6.60;;;;;;;;;;5099696;28;20097;-71
2023/08/02 03:32:16;;;;;;;8.52;6.85;;;;;;;;;;5077718;28;20039;-71
2023/08/02 03:34:44;;;;;;;8.73;6.63;;;;;;;;;;5078300;28;20036;-70
2023/08/02 03:37:12;;;;;;;10.75;7.25;;;;;;;;;;5099186;28;20035;-70
2023/08/02 03:39:39;;;;;;;9.48;6.65;;;;;;;;;;5112504;28;20493;-72
2023/08/02 03:42:07;;;;;;;8.25;6.68;;;;;;;;;;5076174;28;20139;-71
2023/08/02 03:44:35;;;;;;;12.63;7.60;;;;;;;;;;5076465;28;20048;-71
2023/08/02 03:47:02;;;;;;;10.02;7.68;;;;;;;;;;5089082;28;20052;-70
2023/08/02 03:49:30;;;;;;;11.02;7.90;;;;;;;;;;5074572;28;20044;-69
2023/08/02 03:51:58;;;;;;;14.57;8.27;;;;;;;;;;5076784;28;20036;-70
2023/08/02 03:54:26;;;;;;;15.50;7.90;;;;;;;;;;5089248;28;20036;-68
2023/08/02 03:56:53;;;;;;;12.70;7.57;;;;;;;;;;5094567;28;20044;-69
2023/08/02 03:59:21;;;;;;;11.82;7.65;;;;;;;;;;5094429;28;20090;-69
2023/08/02 04:01:48;;;;;;;9.90;7.40;;;;;;;;;;5076713;28;20512;-69
2023/08/02 04:04:16;;;;;;;9.38;6.65;;;;;;;;;;5076300;28;20036;-69
2023/08/02 04:06:44;;;;;;;9.13;7.53;;;;;;;;;;5078073;28;20032;-69
2023/08/02 04:09:12;;;;;;;11.45;7.00;;;;;;;;;;5076180;28;20594;-69
2023/08/02 04:11:39;;;;;;;7.88;6.60;;;;;;;;;;5073732;28;20039;-68
2023/08/02 04:14:07;;;;;;;9.07;6.82;;;;;;;;;;5108527;27;20048;-68
2023/08/02 04:16:34;;;;;;;6.65;6.03;;;;;;;;;;5076250;28;20052;-69
2023/08/02 04:19:02;;;;;;;10.38;6.40;;;;;;;;;;5077005;28;20040;-69
2023/08/02 04:21:29;;;;;;;9.77;6.90;;;;;;;;;;5080609;28;20035;-68
2023/08/02 04:23:57;;;;;;;8.95;6.32;;;;;;;;;;5074255;28;20044;-69
2023/08/02 04:26:25;;;;;;;7.55;6.75;;;;;;;;;;5077511;28;20035;-69
2023/08/02 04:28:52;;;;;;;9.15;6.80;;;;;;;;;;5078358;28;20074;-69
2023/08/02 04:31:20;;;;;;;9.15;6.82;;;;;;;;;;5077137;28;20177;-69
2023/08/02 04:33:48;;;;;;;6.90;6.20;;;;;;;;;;5081301;28;20097;-69
2023/08/02 04:36:15;;;;;;;15.65;7.90;;;;;;;;;;5078503;28;20043;-69
2023/08/02 04:38:43;;;;;;;14.52;8.07;;;;;;;;;;5072412;28;20041;-71
2023/08/02 04:41:15;;;;;;;12.13;8.52;;;;;;;;;;5072280;28;20070;-71
2023/08/02 04:43:43;;;;;;;10.15;7.65;;;;;;;;;;5088756;28;20490;-71
2023/08/02 04:46:10;;;;;;;10.75;8.45;;;;;;;;;;5082417;28;20075;-71
2023/08/02 04:48:38;;;;;;;10.38;9.00;;;;;;;;;;5087866;28;20504;-71
2023/08/02 04:51:07;;;;;;;8.55;7.35;;;;;;;;;;5085249;28;20101;-70
2023/08/02 04:53:35;;;;;;;11.40;7.70;;;;;;;;;;5088555;28;20478;-70
2023/08/02 04:56:02;;;;;;;10.55;7.93;;;;;;;;;;5093343;28;20031;-70
2023/08/02 04:58:30;;;;;;;9.25;7.70;;;;;;;;;;5091417;28;20044;-69
2023/08/02 05:01:01;;;;;;;12.32;8.85;;;;;;;;;;5093742;28;20478;-69
2023/08/02 05:03:29;;;;;;;9.30;7.30;;;;;;;;;;5093623;28;20048;-69
2023/08/02 05:05:59;;;;;;;10.15;7.35;;;;;;;;;;5093877;28;20085;-69
2023/08/02 05:08:29;;;;;;;11.10;7.22;;;;;;;;;;5093558;28;20032;-70
2023/08/02 05:10:57;;;;;;;11.75;8.05;;;;;;;;;;5093605;28;20402;-70
2023/08/02 05:13:25;;;;;;;13.55;8.82;;;;;;;;;;5093399;28;20040;-69
2023/08/02 05:15:54;;;;;;;14.48;9.32;;;;;;;;;;5093422;28;20050;-69
2023/08/02 05:18:22;;;;;;;15.23;9.88;;;;;;;;;;5093229;28;20044;-69
2023/08/02 05:20:50;;;;;;;14.73;9.85;;;;;;;;;;5093373;28;20044;-69
2023/08/02 05:23:18;;;;;;;15.50;10.05;;;;;;;;;;5093652;28;20380;-69
2023/08/02 05:25:45;;;;;;;11.95;9.13;;;;;;;;;;5093152;28;20036;-69
2023/08/02 05:28:13;;;;;;;10.57;8.57;;;;;;;;;;5093262;28;20040;-69
2023/08/02 05:30:40;;;;;;;13.00;7.93;;;;;;;;;;5093094;28;20056;-69
2023/08/02 05:33:08;;;;;;;11.90;8.05;;;;;;;;;;5093216;28;20118;-69
2023/08/02 05:35:35;;;;;;;13.82;9.02;;;;;;;;;;5093113;28;20040;-69
2023/08/02 05:38:04;;;;;;;10.02;7.65;;;;;;;;;;5092977;28;20046;-69
2023/08/02 05:40:32;;;;;;;10.55;7.57;;;;;;;;;;5091663;28;20051;-69
2023/08/02 05:42:59;;;;;;;11.05;8.13;;;;;;;;;;5092338;28;20040;-69
2023/08/02 05:45:27;;;;;;;10.25;6.60;;;;;;;;;;5091808;28;20040;-69
2023/08/02 05:47:54;;;;;;;10.55;7.20;;;;;;;;;;5093239;28;20081;-69
2023/08/02 05:50:22;;;;;;;13.75;7.60;;;;;;;;;;5091732;28;20493;-69
2023/08/02 05:52:49;;;;;;;12.30;7.68;;;;;;;;;;5091828;28;20115;-69
2023/08/02 05:55:17;;;;;;;11.30;7.35;;;;;;;;;;5091512;28;20063;-69
2023/08/02 05:57:45;;;;;;;12.45;7.20;;;;;;;;;;5093494;28;20040;-69
2023/08/02 06:00:13;;;;;;;12.60;7.05;;;;;;;;;;5094662;28;20504;-69
2023/08/02 06:02:40;;;;;;;8.93;6.82;;;;;;;;;;5094293;28;20071;-69
2023/08/02 06:05:08;;;;;;;11.88;6.95;;;;;;;;;;5093120;28;20100;-69
2023/08/02 06:07:36;;;;;;;8.35;6.50;;;;;;;;;;5092692;28;20402;-69
2023/08/02 06:10:03;;;;;;;10.05;6.60;;;;;;;;;;5092671;28;20044;-71
2023/08/02 06:12:31;;;;;;;8.77;5.95;;;;;;;;;;5092588;28;20044;-70
2023/08/02 06:14:58;;;;;;;9.05;6.47;;;;;;;;;;5092608;28;20119;-69
2023/08/02 06:17:26;;;;;;;8.90;6.45;;;;;;;;;;5092585;28;20094;-69
2023/08/02 06:19:54;;;;;;;10.13;6.68;;;;;;;;;;5091308;28;20036;-69
2023/08/02 06:22:21;;;;;;;10.00;6.68;;;;;;;;;;5092926;28;20048;-69
2023/08/02 06:24:49;;;;;;;12.45;7.90;;;;;;;;;;5092381;28;20501;-69
2023/08/02 06:27:16;;;;;;;11.10;8.25;;;;;;;;;;5092462;28;20052;-70
2023/08/02 06:29:43;;;;;;;21.35;18.08;;;;;;;;;;5092494;28;20044;-70
2023/08/02 06:32:11;;;;;;;13.60;10.90;;;;;;;;;;5092418;28;20127;-70
2023/08/02 06:34:38;;;;;;;13.70;9.55;;;;;;;;;;5092469;28;20032;-70
2023/08/02 06:37:06;;;;;;;14.15;8.88;;;;;;;;;;5092384;28;20105;-69
2023/08/02 06:39:34;;;;;;;13.40;9.60;;;;;;;;;;5092318;28;20044;-69
2023/08/02 06:42:01;;;;;;;17.30;9.32;;;;;;;;;;5092574;28;20462;-69
2023/08/02 06:44:30;;;;;;;18.05;9.73;;;;;;;;;;5090840;28;20040;-70
2023/08/02 06:46:58;;;;;;;14.75;8.90;;;;;;;;;;5092194;28;20040;-69
2023/08/02 06:49:25;;;;;;;16.05;9.00;;;;;;;;;;5092137;28;20059;-69
2023/08/02 06:51:53;;;;;;;13.60;7.50;;;;;;;;;;5092267;28;20063;-70
2023/08/02 06:54:20;;;;;;;11.57;7.97;;;;;;;;;;5093627;28;20039;-70
2023/08/02 06:56:48;;;;;;;8.82;7.25;;;;;;;;;;5095964;28;20040;-70
2023/08/02 06:59:15;;;;;;;11.13;7.53;;;;;;;;;;5095922;28;20137;-70
2023/08/02 07:01:43;;;;;;;10.93;8.35;;;;;;;;;;5095896;28;20056;-70
2023/08/02 07:04:10;;;;;;;10.88;8.27;;;;;;;;;;5094720;28;20051;-70
2023/08/02 07:06:38;;;;;;;11.35;7.68;;;;;;;;;;5095929;28;20040;-70
2023/08/02 07:09:05;;;;;;;12.93;8.30;;;;;;;;;;5095840;28;20048;-70
2023/08/02 07:11:34;;;;;;;16.17;8.23;;;;;;;;;;5095822;28;20040;-70
2023/08/02 07:14:04;;;;;;;14.52;8.02;;;;;;;;;;5095747;28;20048;-70
2023/08/02 07:16:31;;;;;;;14.25;10.27;;;;;;;;;;5095671;28;20044;-70
2023/08/02 07:19:02;;;;;;;11.90;9.40;;;;;;;;;;5095592;28;20117;-70
2023/08/02 07:21:30;;;;;;;14.02;9.25;;;;;;;;;;5094551;28;20044;-70
2023/08/02 07:23:58;;;;;;;13.32;8.30;;;;;;;;;;5095595;28;20040;-70
2023/08/02 07:26:25;;;;;;;10.73;7.70;;;;;;;;;;5095639;28;20044;-70
2023/08/02 07:28:53;;;;;;;9.90;6.90;;;;;;;;;;5094130;28;20468;-70
2023/08/02 07:31:21;;;;;;;8.88;5.82;;;;;;;;;;5094188;28;20048;-70
2023/08/02 07:33:48;;;;;;;10.25;5.57;;;;;;;;;;5095327;28;20047;-70
2023/08/02 07:36:20;;;;;;;9.27;5.40;;;;;;;;;;5095287;28;20048;-70
2023/08/02 07:38:47;;;;;;;9.20;5.30;;;;;;;;;;5095275;28;20048;-70
2023/08/02 07:41:15;;;;;;;10.20;6.28;;;;;;;;;;5095306;28;20040;-70
2023/08/02 07:43:42;;;;;;;10.63;5.82;;;;;;;;;;5095380;28;20051;-70
2023/08/02 07:46:20;;;;;;;13.02;5.97;;;;;;;;;;5093825;28;20047;-70
2023/08/02 07:48:48;;;;;;;8.45;6.25;;;;;;;;;;5094995;28;20462;-70
2023/08/02 07:51:15;;;;;;;9.70;6.35;;;;;;;;;;5093841;28;20044;-70
2023/08/02 07:53:43;;;;;;;9.73;5.97;;;;;;;;;;5094902;28;20040;-70
2023/08/02 07:56:10;;;;;;;9.20;6.28;;;;;;;;;;5076960;28;20502;-70
2023/08/02 07:58:38;;;;;;;11.82;5.93;;;;;;;;;;5094671;28;20052;-70
2023/08/02 08:01:06;;;;;;;9.50;5.88;;;;;;;;;;5094949;28;20105;-70
2023/08/02 08:03:34;;;;;;;10.25;5.40;;;;;;;;;;5094858;28;20042;-70
2023/08/02 08:06:09;;;;;;;7.45;4.60;;;;;;;;;;5093990;28;20429;-71
2023/08/02 08:08:37;;;;;;;7.93;4.72;;;;;;;;;;5094710;28;20040;-70
2023/08/02 08:11:04;;;;;;;9.15;4.65;;;;;;;;;;5093261;28;20401;-71
2023/08/02 08:13:32;;;;;;;6.40;4.55;;;;;;;;;;5094647;28;20428;-70
2023/08/02 08:16:00;;;;;;;6.40;4.50;;;;;;;;;;5094892;28;20040;-70
2023/08/02 08:18:30;;;;;;;7.82;4.53;;;;;;;;;;5094326;28;20036;-70
2023/08/02 08:20:58;;;;;;;7.53;5.03;;;;;;;;;;5094435;28;20614;-71
2023/08/02 08:23:26;;;;;;;8.38;5.00;;;;;;;;;;5094277;28;20394;-70
2023/08/02 08:25:54;;;;;;;5.63;4.32;;;;;;;;;;5094286;28;20070;-71
2023/08/02 08:28:21;;;;;;;8.88;4.35;;;;;;;;;;5094404;28;20123;-70
2023/08/02 08:30:49;;;;;;;5.50;4.50;;;;;;;;;;5092901;28;20335;-70
2023/08/02 08:33:16;;;;;;;7.35;4.95;;;;;;;;;;5094175;28;20036;-70
2023/08/02 08:35:44;;;;;;;6.45;4.50;;;;;;;;;;5094386;28;20440;-71
2023/08/02 08:38:11;;;;;;;8.00;4.32;;;;;;;;;;5094070;28;20048;-71
2023/08/02 08:40:39;;;;;;;4.57;3.97;;;;;;;;;;5094023;28;20059;-71
2023/08/02 08:43:06;;;;;;;5.75;4.10;;;;;;;;;;5094050;28;20048;-72
2023/08/02 08:45:34;;;;;;;5.47;3.63;;;;;;;;;;5093957;28;20119;-70
2023/08/02 08:48:01;;;;;;;5.60;4.38;;;;;;;;;;5092525;28;20048;-70
2023/08/02 08:50:29;;;;;;;8.13;4.45;;;;;;;;;;5093117;28;20070;-70
2023/08/02 08:52:58;;;;;;;7.90;4.10;;;;;;;;;;5093828;28;20499;-70
2023/08/02 08:55:28;;;;;;;7.85;4.13;;;;;;;;;;5093697;28;20058;-69
2023/08/02 08:57:56;;;;;;;4.80;3.63;;;;;;;;;;5093748;28;20936;-70
2023/08/02 09:00:33;;;;;;;8.10;4.30;;;;;;;;;;5093492;28;20056;-69
2023/08/02 09:03:01;;;;;;;4.93;3.78;;;;;;;;;;5093443;28;20478;-69
2023/08/02 09:05:31;;;;;;;5.25;4.30;;;;;;;;;;5093520;28;20118;-69
2023/08/02 09:07:59;;;;;;;7.45;4.50;;;;;;;;;;5093854;28;20054;-69
2023/08/02 09:10:27;;;;;;;7.05;4.50;;;;;;;;;;5093349;28;20050;-69
2023/08/02 09:12:54;;;;;;;8.38;4.00;;;;;;;;;;5093504;28;20040;-69
2023/08/02 09:15:22;;;;;;;6.93;3.97;;;;;;;;;;5093360;28;20036;-69
2023/08/02 09:17:51;;;;;;;6.97;3.92;;;;;;;;;;5092603;28;20055;-72
2023/08/02 09:20:22;;;;;;;8.90;5.15;;;;;;;;;;5093356;28;20044;-69
2023/08/02 09:22:50;;;;;;;5.50;4.30;;;;;;;;;;5093264;28;20122;-71
2023/08/02 09:25:23;;;;;;;5.38;3.80;;;;;;;;;;5093273;28;20040;-70
2023/08/02 09:27:52;;;;;;;4.15;3.63;;;;;;;;;;5091941;28;20040;-71
2023/08/02 09:30:24;;;;;;;4.90;3.60;;;;;;;;;;5091694;28;20097;-70
2023/08/02 09:33:03;;;;;;;6.88;3.83;;;;;;;;;;5093495;28;20366;-71
2023/08/02 09:35:32;;;;;;;6.50;4.13;;;;;;;;;;5091870;28;20451;-71
2023/08/02 09:38:00;;;;;;;5.13;4.18;;;;;;;;;;5092837;28;20126;-70
2023/08/02 09:40:35;;;;;;;5.50;3.90;;;;;;;;;;5092848;28;20573;-70
2023/08/02 09:43:21;;;;;;;4.90;3.70;;;;;;;;;;5093049;28;20086;-71
2023/08/02 09:45:48;;;;;;;5.13;3.70;;;;;;;;;;5091590;28;20044;-70
2023/08/02 09:48:16;;;;;;;5.72;3.90;;;;;;;;;;5092845;28;20040;-70
2023/08/02 09:50:57;;;;;;;4.53;3.95;;;;;;;;;;5092892;28;20043;-70
2023/08/02 09:53:25;;;;;;;9.15;3.90;;;;;;;;;;5092729;28;20036;-71
2023/08/02 09:55:56;;;;;;;6.00;4.05;;;;;;;;;;5092795;28;20047;-70
2023/08/02 09:58:24;;;;;;;4.82;3.88;;;;;;;;;;5092574;28;20435;-70
2023/08/02 10:00:51;;;;;;;5.50;3.90;;;;;;;;;;5093549;28;20097;-71
2023/08/02 10:03:22;;;;;;;16.67;4.70;;;;;;;;;;5094829;28;20067;-71
2023/08/02 10:05:54;;;;;;;10.40;3.97;;;;;;;;;;5093431;28;20073;-70
2023/08/02 10:08:21;;;;;;;6.30;4.30;;;;;;;;;;5092831;28;20071;-70
2023/08/02 10:10:49;;;;;;;4.93;3.85;;;;;;;;;;5092632;28;20133;-71
2023/08/02 10:13:24;;;;;;;7.55;4.32;;;;;;;;;;5092589;28;20040;-71
2023/08/02 10:15:52;;;;;;;7.32;4.30;;;;;;;;;;5092584;28;20044;-71
2023/08/02 10:18:21;;;;;;;5.95;3.70;;;;;;;;;;5092723;28;20047;-71
2023/08/02 10:20:48;;;;;;;8.70;4.30;;;;;;;;;;5092491;28;20036;-69
2023/08/02 10:23:16;;;;;;;8.13;4.28;;;;;;;;;;5092554;28;20486;-69
2023/08/02 10:25:45;;;;;;;6.38;4.47;;;;;;;;;;5092398;28;20394;-69
2023/08/02 10:28:13;;;;;;;8.07;4.30;;;;;;;;;;5091118;28;20040;-70
2023/08/02 10:30:40;;;;;;;7.68;4.93;;;;;;;;;;5096464;28;20036;-70
2023/08/02 10:33:14;;;;;;;5.13;3.72;;;;;;;;;;5096499;28;20040;-70
2023/08/02 10:35:55;;;;;;;5.32;4.47;;;;;;;;;;5096423;28;20480;-72
2023/08/02 10:38:27;;;;;;;6.18;4.15;;;;;;;;;;5095101;28;20047;-69
2023/08/02 10:41:02;;;;;;;6.43;4.10;;;;;;;;;;5096324;28;20529;-69
2023/08/02 10:43:29;;;;;;;4.68;4.18;;;;;;;;;;5095825;28;20536;-69
2023/08/02 10:46:16;;;;;;;6.15;4.05;;;;;;;;;;5096065;28;20038;-68
2023/08/02 10:48:44;;;;;;;6.68;4.32;;;;;;;;;;5095717;28;20063;-69
2023/08/02 10:51:31;;;;;;;6.93;4.35;;;;;;;;;;5095919;28;20492;-70
2023/08/02 10:54:21;;;;;;;7.13;4.38;;;;;;;;;;5095739;28;20043;-69
2023/08/02 10:56:52;;;;;;;5.43;4.78;;;;;;;;;;5095849;28;20051;-70
2023/08/02 10:59:22;;;;;;;6.55;4.60;;;;;;;;;;5095262;28;20059;-69
2023/08/02 11:02:01;;;;;;;13.63;4.65;;;;;;;;;;5095618;28;20066;-70
2023/08/02 11:04:30;;;;;;;4.95;4.35;;;;;;;;;;5095985;28;20052;-70
2023/08/02 11:07:24;;;;;;;6.15;4.32;;;;;;;;;;5095897;28;20043;-69
2023/08/02 11:09:54;;;;;;;10.38;4.47;;;;;;;;;;5094603;28;20036;-69
2023/08/02 11:12:22;;;;;;;6.05;4.43;;;;;;;;;;5094641;28;20464;-69
2023/08/02 11:14:51;;;;;;;8.45;4.10;;;;;;;;;;5095787;28;20044;-71
2023/08/02 11:17:19;;;;;;;4.30;3.88;;;;;;;;;;5095627;28;20047;-70
2023/08/02 11:19:51;;;;;;;5.45;4.60;;;;;;;;;;5094426;28;20044;-70
2023/08/02 11:22:21;;;;;;;5.72;4.20;;;;;;;;;;5095669;28;20489;-70
2023/08/02 11:24:50;;;;;;;5.03;4.18;;;;;;;;;;5095943;28;20117;-70
2023/08/02 11:27:19;;;;;;;7.25;4.28;;;;;;;;;;5094170;28;20086;-70
2023/08/02 11:29:59;;;;;;;6.72;4.28;;;;;;;;;;5095527;28;20044;-70
2023/08/02 11:32:27;;;;;;;5.10;3.90;;;;;;;;;;5094119;28;20048;-70
2023/08/02 11:34:54;;;;;;;4.93;3.67;;;;;;;;;;5095473;28;20036;-70
2023/08/02 11:37:22;;;;;;;4.25;3.78;;;;;;;;;;5095320;28;20040;-69
2023/08/02 11:39:51;;;;;;;5.32;3.88;;;;;;;;;;5095334;28;20044;-70
2023/08/02 11:42:51;;;;;;;6.75;4.13;;;;;;;;;;5094906;28;20051;-70
2023/08/02 11:45:35;;;;;;;8.00;4.07;;;;;;;;;;5095448;28;20047;-70
2023/08/02 11:48:03;;;;;;;6.40;4.47;;;;;;;;;;5094917;28;20543;-71
2023/08/02 11:50:39;;;;;;;8.10;4.40;;;;;;;;;;5094888;28;20379;-70
2023/08/02 11:53:09;;;;;;;6.43;4.30;;;;;;;;;;5095076;28;20462;-70
2023/08/02 11:55:38;;;;;;;6.72;4.20;;;;;;;;;;5094843;28;20047;-70
2023/08/02 11:58:07;;;;;;;6.03;4.90;;;;;;;;;;5094812;28;20036;-70
2023/08/02 12:00:35;;;;;;;19.70;5.22;;;;;;;;;;5094958;28;20054;-70
2023/08/02 12:03:15;;;;;;;5.80;4.15;;;;;;;;;;5094588;28;20398;-70
2023/08/02 12:05:45;;;;;;;5.90;4.25;;;;;;;;;;5094656;28;20044;-70
2023/08/02 12:08:12;;;;;;;7.85;4.35;;;;;;;;;;5094542;28;20036;-70
2023/08/02 12:10:40;;;;;;;5.75;4.15;;;;;;;;;;5094637;28;20046;-71
2023/08/02 12:13:12;;;;;;;8.60;4.90;;;;;;;;;;5094592;28;20036;-71
2023/08/02 12:15:40;;;;;;;9.70;5.22;;;;;;;;;;5094841;28;20379;-70
2023/08/02 12:18:07;;;;;;;9.73;4.25;;;;;;;;;;5094363;28;20039;-71
2023/08/02 12:20:35;;;;;;;7.60;4.55;;;;;;;;;;5094506;28;20543;-71
2023/08/02 12:23:03;;;;;;;7.22;4.20;;;;;;;;;;5094383;28;20050;-70
2023/08/02 12:25:47;;;;;;;5.97;4.70;;;;;;;;;;5094383;28;20040;-70
2023/08/02 12:28:15;;;;;;;6.75;4.10;;;;;;;;;;5093188;28;20063;-71
2023/08/02 12:30:59;;;;;;;6.22;4.35;;;;;;;;;;5094573;28;20413;-71
2023/08/02 12:33:27;;;;;;;6.70;4.40;;;;;;;;;;5094143;28;20050;-71
2023/08/02 12:35:54;;;;;;;5.13;3.92;;;;;;;;;;5094158;28;20059;-72
2023/08/02 12:38:28;;;;;;;5.00;3.95;;;;;;;;;;5092756;28;20575;-71
2023/08/02 12:40:57;;;;;;;6.47;3.92;;;;;;;;;;5094105;28;20489;-71
2023/08/02 12:43:25;;;;;;;4.53;4.13;;;;;;;;;;5093964;28;20036;-70
2023/08/02 12:45:52;;;;;;;5.80;4.93;;;;;;;;;;5093966;28;20143;-70
2023/08/02 12:48:20;;;;;;;6.40;4.35;;;;;;;;;;5093809;28;20425;-70
2023/08/02 12:50:48;;;;;;;8.65;4.93;;;;;;;;;;5093923;28;20036;-70
2023/08/02 12:53:15;;;;;;;8.00;4.15;;;;;;;;;;5093129;28;20047;-70
2023/08/02 12:55:43;;;;;;;7.05;4.68;;;;;;;;;;5093935;28;20402;-70
2023/08/02 12:58:14;;;;;;;6.53;4.28;;;;;;;;;;5092198;28;20028;-71
2023/08/02 13:00:42;;;;;;;5.10;4.60;;;;;;;;;;5093611;28;20043;-67
2023/08/02 13:03:10;;;;;;;5.68;4.70;;;;;;;;;;5092806;28;20044;-66
2023/08/02 13:05:38;;;;;;;5.88;4.65;;;;;;;;;;5093455;28;20058;-68
2023/08/02 13:08:06;;;;;;;5.40;4.85;;;;;;;;;;5093343;28;20374;-68
2023/08/02 13:10:33;;;;;;;6.47;4.68;;;;;;;;;;5093306;28;20067;-68
2023/08/02 13:13:02;;;;;;;8.18;4.95;;;;;;;;;;5093489;28;20439;-65
2023/08/02 13:15:30;;;;;;;5.80;4.53;;;;;;;;;;5093344;28;20048;-71
2023/08/02 13:17:57;;;;;;;6.22;4.95;;;;;;;;;;5093261;28;20052;-69
2023/08/02 13:20:27;;;;;;;6.57;4.55;;;;;;;;;;5092201;28;20043;-67
2023/08/02 13:22:55;;;;;;;8.98;4.97;;;;;;;;;;5093189;28;20044;-67
2023/08/02 13:25:23;;;;;;;9.48;5.30;;;;;;;;;;5093131;28;20044;-65
2023/08/02 13:27:52;;;;;;;6.10;4.90;;;;;;;;;;5092942;28;20070;-67
2023/08/02 13:30:20;;;;;;;6.75;5.53;;;;;;;;;;5093195;28;20047;-67
2023/08/02 13:32:47;;;;;;;13.50;5.25;;;;;;;;;;5093207;28;20040;-67
2023/08/02 13:35:16;;;;;;;6.57;4.60;;;;;;;;;;5093036;28;20075;-67
2023/08/02 13:37:43;;;;;;;11.15;5.57;;;;;;;;;;5092932;28;20056;-67
2023/08/02 13:40:11;;;;;;;6.60;4.85;;;;;;;;;;5093152;28;20044;-67
2023/08/02 13:42:38;;;;;;;6.68;5.25;;;;;;;;;;5095099;28;20444;-67
2023/08/02 13:45:06;;;;;;;8.02;5.07;;;;;;;;;;5094121;28;20044;-66
2023/08/02 13:47:34;;;;;;;7.38;5.05;;;;;;;;;;5092865;28;20060;-65
2023/08/02 13:50:01;;;;;;;10.98;5.38;;;;;;;;;;5092624;28;20093;-66
2023/08/02 13:52:29;;;;;;;7.13;5.95;;;;;;;;;;5092619;28;20155;-66
2023/08/02 13:54:56;;;;;;;7.22;5.40;;;;;;;;;;5091804;28;20067;-65
2023/08/02 13:57:24;;;;;;;7.35;6.13;;;;;;;;;;5094098;28;20100;-66
2023/08/02 13:59:52;;;;;;;9.00;6.50;;;;;;;;;;5089054;28;20442;-66
2023/08/02 14:02:19;;;;;;;9.50;5.80;;;;;;;;;;5080714;28;20098;-66
2023/08/02 14:04:47;;;;;;;6.35;5.45;;;;;;;;;;5087712;28;20510;-67
2023/08/02 14:07:14;;;;;;;6.68;5.95;;;;;;;;;;5092443;28;20048;-66
2023/08/02 14:09:42;;;;;;;9.23;5.97;;;;;;;;;;5092705;28;20422;-66
2023/08/02 14:12:09;;;;;;;9.30;6.55;;;;;;;;;;5092824;28;20056;-66
2023/08/02 14:14:37;;;;;;;8.85;6.35;;;;;;;;;;5092406;28;20504;-67
2023/08/02 14:17:04;;;;;;;7.10;6.40;;;;;;;;;;5092592;28;20036;-66
2023/08/02 14:19:32;;;;;;;6.60;5.28;;;;;;;;;;5092182;28;20036;-68
2023/08/02 14:21:59;;;;;;;11.15;5.65;;;;;;;;;;5092447;28;20101;-68
2023/08/02 14:24:27;;;;;;;10.13;5.75;;;;;;;;;;5092421;28;20401;-68
2023/08/02 14:26:54;;;;;;;7.05;5.93;;;;;;;;;;5092354;28;20032;-68
2023/08/02 14:29:22;;;;;;;6.78;5.63;;;;;;;;;;5092326;28;20539;-67
2023/08/02 14:31:49;;;;;;;9.48;5.78;;;;;;;;;;5092345;28;20062;-66
2023/08/02 14:34:23;;;;;;;8.77;5.80;;;;;;;;;;5092249;28;20055;-66
2023/08/02 14:36:51;;;;;;;5.90;5.30;;;;;;;;;;5092634;28;20131;-67
2023/08/02 14:39:18;;;;;;;7.88;5.43;;;;;;;;;;5092414;28;20119;-67
2023/08/02 14:41:46;;;;;;;7.85;5.72;;;;;;;;;;5092300;28;20044;-67
2023/08/02 14:44:14;;;;;;;8.68;6.00;;;;;;;;;;5092429;28;20048;-67
2023/08/02 14:46:41;;;;;;;8.98;6.25;;;;;;;;;;5092342;28;20043;-67
2023/08/02 14:49:09;;;;;;;12.70;7.65;;;;;;;;;;5092140;28;20036;-67